»·PEaware :: N1399 KAWO-KPDX

N1399 :: KAWO-KPDX

FLIGHT INFORMATION

Flight Status: Arrived
Operator: Privately registered:
United States
More flights under this callsign
Pilot: David C. (16084)
Aircraft: BEECH AIRCRAFT SUPER KING AIR 350
(B350)
More flights by this aircraft type
Origin: KAWO Arlington Mun
United States
Destination: KPDX Portland Intl
United States
More flights between these airports :: More routes between these airports
Route: +PAE V23 SEA BUWZO KRATR2
File this flight plan on PilotEdge
Remarks:
Altitude:
(Current/Filed)
22,000ft
Speed:
(Current/Filed)
315kts
Departed: 11-Jul-20 12:01 PM
Arrived: 11-Jul-20 12:47 PM
Distance/Time
Traveled:
155nm/0:46
Distance/Time
To Go:
Arrived

Flight Plot

Page will automatically refresh every two minutes.


Map Options




Map Legend


Flown Route
Filed Route
Departure Airport
Arrival Airport
Navaid (VOR, NDB)
Fix

Horizontal Profiles

Position Reports

Time Latitude Longitude Heading Altitude Ground
Speed
11-Jul-20 11:28 48.160064 -122.152778 270 138ft 0kts
11-Jul-20 11:29 48.160064 -122.152778 270 138ft 0kts
11-Jul-20 11:30 48.160064 -122.152778 270 138ft 0kts
11-Jul-20 11:31 48.160064 -122.152778 270 138ft 0kts
11-Jul-20 11:32 48.160064 -122.152778 270 138ft 0kts
11-Jul-20 11:33 48.160064 -122.152778 270 138ft 0kts
11-Jul-20 11:34 48.160064 -122.152778 270 138ft 0kts
11-Jul-20 11:35 48.160064 -122.152778 270 138ft 0kts
11-Jul-20 11:36 48.160064 -122.152778 270 138ft 0kts
11-Jul-20 11:37 48.160064 -122.152778 270 138ft 0kts
11-Jul-20 11:38 48.160064 -122.152778 270 138ft 0kts
11-Jul-20 11:39 48.160064 -122.152779 270 138ft 0kts
11-Jul-20 11:40 48.160064 -122.152779 270 138ft 0kts
11-Jul-20 11:41 48.160064 -122.152779 270 138ft 0kts
11-Jul-20 11:42 48.160064 -122.152779 270 138ft 0kts
11-Jul-20 11:43 48.160064 -122.152779 270 138ft 0kts
11-Jul-20 11:44 48.160064 -122.152779 270 138ft 0kts
11-Jul-20 11:45 48.160064 -122.152779 270 138ft 0kts
11-Jul-20 11:46 48.160064 -122.152779 270 138ft 0kts
11-Jul-20 11:47 48.160064 -122.152779 270 138ft 0kts
11-Jul-20 11:48 48.160064 -122.152779 270 138ft 0kts
11-Jul-20 11:50 48.160064 -122.152779 270 138ft 0kts
11-Jul-20 11:51 48.160064 -122.152779 270 138ft 0kts
11-Jul-20 11:52 48.160064 -122.152779 270 138ft 0kts
11-Jul-20 11:53 48.160064 -122.152779 270 138ft 0kts
11-Jul-20 11:54 48.160086 -122.152942 296 138ft 3kts
11-Jul-20 11:55 48.161052 -122.154293 359 137ft 9kts
11-Jul-20 11:56 48.164197 -122.154365 358 139ft 12kts
11-Jul-20 11:57 48.167585 -122.154464 0 143ft 12kts
11-Jul-20 11:58 48.169462 -122.155255 232 146ft 0kts
11-Jul-20 11:59 48.169462 -122.155256 232 146ft 0kts
11-Jul-20 12:00 48.168660 -122.156533 179 145ft 0kts
11-Jul-20 12:01 48.150881 -122.156235 182 471ft 151kts
11-Jul-20 12:02 48.106472 -122.172207 201 2381ft 174kts
11-Jul-20 12:03 48.060494 -122.194977 201 4433ft 175kts
11-Jul-20 12:04 48.014472 -122.217018 202 6329ft 173kts
11-Jul-20 12:05 47.970867 -122.244783 206 8206ft 170kts
11-Jul-20 12:06 47.928426 -122.272254 205 10213ft 166kts
11-Jul-20 12:07 47.882888 -122.280188 186 12008ft 166kts
11-Jul-20 12:07 47.844360 -122.282732 187 13538ft 167kts
11-Jul-20 12:09 47.790652 -122.286245 187 15628ft 166kts
11-Jul-20 12:09 47.752401 -122.288746 188 17209ft 165kts
11-Jul-20 12:10 47.706676 -122.291745 189 18974ft 166kts
11-Jul-20 12:11 47.660701 -122.294768 190 20917ft 166kts
11-Jul-20 12:13 47.604268 -122.298854 189 22188ft 208kts
11-Jul-20 12:13 47.551113 -122.302779 188 22166ft 248kts
11-Jul-20 12:14 47.479272 -122.307543 188 22160ft 269kts
11-Jul-20 12:15 47.402780 -122.311507 185 22154ft 282kts
11-Jul-20 12:16 47.323607 -122.310791 185 22152ft 286kts
11-Jul-20 12:17 47.243960 -122.310620 185 22150ft 288kts
11-Jul-20 12:18 47.163820 -122.310623 185 22149ft 288kts
11-Jul-20 12:19 47.083542 -122.310634 185 22149ft 288kts
11-Jul-20 12:20 47.003416 -122.310627 185 22147ft 289kts
11-Jul-20 12:21 46.922798 -122.310477 185 22148ft 291kts
11-Jul-20 12:22 46.846265 -122.310186 186 22156ft 294kts
11-Jul-20 12:23 46.763872 -122.310309 185 21347ft 295kts
11-Jul-20 12:24 46.682407 -122.310320 185 19850ft 291kts
11-Jul-20 12:25 46.601714 -122.310363 185 18343ft 287kts
11-Jul-20 12:26 46.523879 -122.310280 185 16824ft 275kts
11-Jul-20 12:27 46.448131 -122.310285 184 15305ft 269kts
11-Jul-20 12:28 46.373990 -122.310317 184 13793ft 265kts
11-Jul-20 12:29 46.300501 -122.310358 184 12276ft 263kts
11-Jul-20 12:30 46.230379 -122.324425 202 10754ft 252kts
11-Jul-20 12:31 46.166860 -122.360450 203 9999ft 232kts
11-Jul-20 12:32 46.105109 -122.394919 203 10033ft 246kts
11-Jul-20 12:33 46.040767 -122.429986 203 9002ft 246kts
11-Jul-20 12:34 45.976743 -122.464360 202 7475ft 245kts
11-Jul-20 12:35 45.917573 -122.505385 221 6559ft 229kts
11-Jul-20 12:36 45.873271 -122.561970 221 5167ft 236kts
11-Jul-20 12:37 45.823925 -122.624369 221 4982ft 239kts
11-Jul-20 12:38 45.776576 -122.684513 222 4917ft 205kts
11-Jul-20 12:39 45.740657 -122.745145 234 2976ft 191kts
11-Jul-20 12:40 45.709552 -122.795849 219 2681ft 169kts
11-Jul-20 12:41 45.668686 -122.805266 128 2849ft 180kts
11-Jul-20 12:42 45.654206 -122.746921 116 2685ft 141kts
11-Jul-20 12:43 45.636299 -122.700759 122 1805ft 128kts
11-Jul-20 12:44 45.618469 -122.656320 120 1021ft 131kts
11-Jul-20 12:45 45.601575 -122.613284 119 294ft 121kts
11-Jul-20 12:46 45.589976 -122.583270 118 27ft 31kts
11-Jul-20 12:47 45.588074 -122.582627 207 27ft 7kts
11-Jul-20 12:48 45.586426 -122.579855 144 27ft 11kts
11-Jul-20 12:49 45.585356 -122.580059 25 27ft 0kts
11-Jul-20 12:50 45.585356 -122.580059 25 27ft 0kts

Navigation Log

Ident Type
Flight plan parsing failed, navigation log unavailable